Time;durP1;ratioP1;P1;durP2;ratioP2;P2;SDS_P1;SDS_P2;PMS_P1;PMS_P2;Temp;Humidity;BMP_temperature;BMP_pressure;BME280_temperature;BME280_humidity;BME280_pressure;Samples;Min_cycle;Max_cycle;Signal;HPM_P1;HPM_P2
2023/08/11 00:00:24;;;;;;;1.52;1.13;;;;;;;11.36;100.00;101896.63;4956574;28;20197;-44
2023/08/11 00:02:52;;;;;;;1.70;1.40;;;;;;;11.31;100.00;101900.31;4958911;28;20190;-43
2023/08/11 00:05:20;;;;;;;6.53;1.50;;;;;;;11.30;100.00;101903.91;4958416;28;20242;-45
2023/08/11 00:07:50;;;;;;;5.50;1.27;;;;;;;11.32;100.00;101914.59;4955001;28;20217;-44
2023/08/11 00:10:19;;;;;;;4.30;1.48;;;;;;;11.33;100.00;101914.56;4955127;28;20190;-43
2023/08/11 00:12:46;;;;;;;4.22;1.42;;;;;;;11.39;100.00;101910.88;4960969;28;20201;-44
2023/08/11 00:15:12;;;;;;;3.95;1.30;;;;;;;11.46;100.00;101909.78;4960550;28;20277;-44
2023/08/11 00:17:38;;;;;;;5.60;1.40;;;;;;;11.28;100.00;101910.22;4956999;28;20202;-44
2023/08/11 00:20:06;;;;;;;4.65;1.40;;;;;;;11.30;100.00;101903.91;4976225;23;20173;-46
2023/08/11 00:22:32;;;;;;;2.17;1.40;;;;;;;11.26;100.00;101915.63;5009315;28;20250;-48
2023/08/11 00:24:58;;;;;;;6.65;1.50;;;;;;;11.23;100.00;101906.78;5018129;28;20180;-48
2023/08/11 00:27:23;;;;;;;3.13;1.30;;;;;;;11.06;100.00;101915.19;5028360;28;20298;-50
2023/08/11 00:29:49;;;;;;;5.75;1.30;;;;;;;11.10;100.00;101919.56;5008762;28;20241;-52
2023/08/11 00:32:14;;;;;;;3.40;1.20;;;;;;;10.97;100.00;101924.31;5011628;28;20188;-46
2023/08/11 00:34:40;;;;;;;1.55;1.00;;;;;;;10.89;100.00;101932.56;5018280;28;20179;-48
2023/08/11 00:37:06;;;;;;;4.22;1.17;;;;;;;10.86;100.00;101929.06;5026295;28;20218;-53
2023/08/11 00:39:32;;;;;;;2.67;1.30;;;;;;;10.86;100.00;101921.88;5008046;28;20196;-50
2023/08/11 00:41:57;;;;;;;4.07;1.63;;;;;;;10.85;100.00;101920.13;5005434;28;20195;-45
2023/08/11 00:44:23;;;;;;;3.08;1.30;;;;;;;10.79;100.00;101930.09;4996943;28;20306;-45
2023/08/11 00:46:49;;;;;;;4.00;1.30;;;;;;;10.82;100.00;101927.34;5005705;28;20601;-49
2023/08/11 00:49:15;;;;;;;2.38;1.20;;;;;;;10.79;100.00;101920.25;4998241;28;20199;-48
2023/08/11 00:51:41;;;;;;;3.33;1.13;;;;;;;10.81;100.00;101923.78;5008919;28;20168;-52
2023/08/11 00:54:10;;;;;;;3.67;1.20;;;;;;;10.77;100.00;101923.91;5023872;28;20602;-48
2023/08/11 00:56:36;;;;;;;5.25;1.40;;;;;;;10.64;100.00;101926.81;5010760;28;20603;-47
2023/08/11 00:59:03;;;;;;;3.97;1.38;;;;;;;10.58;100.00;101921.59;5022190;28;20279;-46
2023/08/11 01:01:29;;;;;;;1.17;1.05;;;;;;;10.68;100.00;101930.34;5002717;28;20895;-47
2023/08/11 01:03:55;;;;;;;3.28;1.42;;;;;;;10.77;100.00;101918.53;5020613;28;20216;-45
2023/08/11 01:06:40;;;;;;;3.45;1.27;;;;;;;10.90;100.00;101917.34;5002860;28;20588;-47
2023/08/11 01:09:18;;;;;;;5.07;1.75;;;;;;;11.06;100.00;101920.56;5000343;28;20231;-49
2023/08/11 01:11:51;;;;;;;2.30;1.25;;;;;;;11.18;100.00;101917.59;5024501;28;20187;-50
2023/08/11 01:14:40;;;;;;;5.68;1.33;;;;;;;11.19;100.00;101915.81;5029215;28;20160;-49
2023/08/11 01:17:12;;;;;;;3.15;1.10;;;;;;;11.28;100.00;101904.84;5010103;28;20913;-46
2023/08/11 01:19:38;;;;;;;2.78;1.55;;;;;;;11.39;100.00;101912.63;5001167;28;20231;-48
2023/08/11 01:22:11;;;;;;;2.58;1.40;;;;;;;11.25;100.00;101912.97;5022511;28;20175;-47
2023/08/11 01:24:37;;;;;;;2.30;1.17;;;;;;;11.31;100.00;101915.53;5006876;28;20191;-54
2023/08/11 01:27:04;;;;;;;3.25;1.33;;;;;;;11.32;100.00;101911.91;5020373;28;20201;-49
2023/08/11 01:29:29;;;;;;;3.47;1.13;;;;;;;11.33;100.00;101908.31;5000188;28;20195;-51
2023/08/11 01:31:55;;;;;;;5.10;1.38;;;;;;;11.38;100.00;101908.22;5028978;28;20172;-47
2023/08/11 01:34:21;;;;;;;3.33;1.30;;;;;;;11.38;100.00;101909.09;5011223;28;20177;-55
2023/08/11 01:36:50;;;;;;;3.53;1.50;;;;;;;11.46;100.00;101904.41;5011607;28;20207;-48
2023/08/11 01:39:16;;;;;;;2.00;0.90;;;;;;;11.46;100.00;101903.53;5026078;28;20172;-48
2023/08/11 01:41:41;;;;;;;2.72;1.77;;;;;;;11.48;100.00;101901.69;5028499;28;20210;-46
2023/08/11 01:44:08;;;;;;;3.15;1.45;;;;;;;11.26;100.00;101893.25;5001487;28;20200;-46
2023/08/11 01:46:34;;;;;;;4.55;1.33;;;;;;;11.16;100.00;101889.94;5007518;28;20165;-46
2023/08/11 01:49:01;;;;;;;3.75;1.67;;;;;;;11.07;100.00;101895.53;5008294;28;20697;-51
2023/08/11 01:51:28;;;;;;;1.70;1.13;;;;;;;11.16;100.00;101897.09;5015198;28;20233;-47
2023/08/11 01:53:53;;;;;;;2.65;1.35;;;;;;;11.19;100.00;101899.72;5028658;28;20621;-49
2023/08/11 01:56:20;;;;;;;2.05;1.00;;;;;;;11.21;100.00;101890.69;5000203;28;20173;-47
2023/08/11 01:58:47;;;;;;;2.00;1.17;;;;;;;11.21;100.00;101897.88;5000908;28;20214;-48
2023/08/11 02:01:13;;;;;;;4.85;1.13;;;;;;;11.18;100.00;101893.47;4999179;28;20222;-46
2023/08/11 02:03:40;;;;;;;4.13;1.20;;;;;;;11.19;100.00;101903.25;5024360;28;20200;-48
2023/08/11 02:06:05;;;;;;;2.55;1.30;;;;;;;11.21;100.00;101905.91;5019297;28;20183;-46
2023/08/11 02:08:32;;;;;;;2.47;1.38;;;;;;;11.20;100.00;101901.50;5021141;28;20195;-46
2023/08/11 02:10:58;;;;;;;3.25;1.30;;;;;;;11.24;100.00;101900.47;5024497;28;20176;-47
2023/08/11 02:13:23;;;;;;;2.42;1.15;;;;;;;11.24;100.00;101893.31;5009581;28;20181;-47
2023/08/11 02:15:49;;;;;;;1.92;1.00;;;;;;;11.25;100.00;101903.13;4986576;28;20184;-48
2023/08/11 02:18:15;;;;;;;2.95;1.30;;;;;;;11.23;100.00;101902.28;5022632;28;20215;-47
2023/08/11 02:20:41;;;;;;;2.63;1.42;;;;;;;11.18;100.00;101898.84;5008808;28;20184;-54
2023/08/11 02:23:07;;;;;;;1.70;1.13;;;;;;;11.24;100.00;101895.09;5029272;28;20280;-46
2023/08/11 02:25:33;;;;;;;2.20;1.38;;;;;;;11.30;100.00;101892.28;5015794;28;20335;-47
2023/08/11 02:27:59;;;;;;;3.33;1.40;;;;;;;11.23;100.00;101890.66;5002560;28;20314;-52
2023/08/11 02:30:29;;;;;;;2.00;1.23;;;;;;;11.22;100.00;101894.28;5020190;28;20209;-48
2023/08/11 02:32:55;;;;;;;2.55;1.27;;;;;;;11.14;100.00;101884.59;5023899;28;20654;-47
2023/08/11 02:35:21;;;;;;;5.75;1.13;;;;;;;11.15;100.00;101885.50;5015797;28;20184;-47
2023/08/11 02:37:47;;;;;;;2.33;1.30;;;;;;;11.12;100.00;101899.84;5022082;28;20282;-48
2023/08/11 02:40:14;;;;;;;4.30;1.35;;;;;;;11.07;100.00;101899.09;5029334;28;20180;-48
2023/08/11 02:42:54;;;;;;;3.08;1.20;;;;;;;11.15;100.00;101893.56;5025133;28;20211;-46
2023/08/11 02:45:20;;;;;;;3.22;1.45;;;;;;;11.12;100.00;101889.13;5028232;28;20532;-47
2023/08/11 02:47:46;;;;;;;4.88;1.40;;;;;;;11.18;100.00;101876.50;5017385;28;20212;-48
2023/08/11 02:50:12;;;;;;;5.20;1.52;;;;;;;11.25;100.00;101878.09;5009590;28;20561;-49
2023/08/11 02:52:38;;;;;;;2.50;1.27;;;;;;;11.36;100.00;101880.53;5028532;28;20202;-47
2023/08/11 02:55:05;;;;;;;3.00;1.65;;;;;;;11.39;100.00;101878.66;5031516;28;20266;-47
2023/08/11 02:57:31;;;;;;;6.65;1.92;;;;;;;11.45;100.00;101881.16;5019025;28;20611;-56
2023/08/11 02:59:57;;;;;;;5.20;1.60;;;;;;;11.51;100.00;101872.97;5012896;28;20176;-47
2023/08/11 03:02:23;;;;;;;2.15;1.40;;;;;;;11.61;100.00;101865.56;5008195;28;20236;-48
2023/08/11 03:04:48;;;;;;;3.80;1.30;;;;;;;11.70;100.00;101869.81;5030987;28;20529;-48
2023/08/11 03:07:16;;;;;;;5.32;2.00;;;;;;;11.76;100.00;101875.00;5029423;28;20230;-49
2023/08/11 03:09:41;;;;;;;4.50;1.75;;;;;;;11.81;100.00;101875.78;5001722;28;20279;-46
2023/08/11 03:12:08;;;;;;;3.65;1.73;;;;;;;11.87;100.00;101882.78;5010154;28;20646;-46
2023/08/11 03:14:35;;;;;;;1.95;1.40;;;;;;;11.92;100.00;101884.47;5026702;28;20572;-47
2023/08/11 03:17:05;;;;;;;3.72;1.15;;;;;;;11.99;100.00;101884.31;5030643;28;20849;-50
2023/08/11 03:19:33;;;;;;;2.88;1.50;;;;;;;12.03;100.00;101894.94;4996868;28;20222;-46
2023/08/11 03:21:59;;;;;;;6.20;1.80;;;;;;;12.07;100.00;101887.66;5015662;28;20207;-50
2023/08/11 03:24:25;;;;;;;6.35;1.83;;;;;;;12.06;100.00;101894.81;5025226;28;20208;-49
2023/08/11 03:26:51;;;;;;;4.20;1.60;;;;;;;12.14;100.00;101890.13;5010127;28;20173;-45
2023/08/11 03:29:17;;;;;;;3.38;1.58;;;;;;;12.19;100.00;101883.75;5008674;28;20239;-46
2023/08/11 03:31:42;;;;;;;7.55;2.08;;;;;;;12.25;100.00;101878.22;5027693;28;20263;-47
2023/08/11 03:34:08;;;;;;;6.00;2.28;;;;;;;12.29;100.00;101886.13;5011448;28;20183;-47
2023/08/11 03:36:34;;;;;;;4.30;1.70;;;;;;;12.38;100.00;101881.44;5004338;28;20271;-47
2023/08/11 03:39:01;;;;;;;5.03;2.15;;;;;;;12.40;100.00;101890.31;5014745;28;20231;-49
2023/08/11 03:41:27;;;;;;;3.40;1.40;;;;;;;12.45;100.00;101872.25;5030173;28;20206;-48
2023/08/11 03:43:52;;;;;;;3.00;1.83;;;;;;;12.45;100.00;101875.81;4999015;28;20208;-56
2023/08/11 03:46:18;;;;;;;4.72;1.77;;;;;;;12.49;100.00;101865.88;5021693;28;20191;-49
2023/08/11 03:48:44;;;;;;;7.25;1.58;;;;;;;12.47;100.00;101860.53;5000811;28;20682;-46
2023/08/11 03:51:11;;;;;;;5.10;1.70;;;;;;;12.49;100.00;101863.19;5007097;28;20182;-47
2023/08/11 03:53:36;;;;;;;6.40;1.85;;;;;;;12.51;100.00;101861.34;5029469;28;20192;-46
2023/08/11 03:56:07;;;;;;;3.22;1.73;;;;;;;12.54;100.00;101866.59;5012372;28;20577;-49
2023/08/11 03:58:35;;;;;;;2.95;1.67;;;;;;;12.55;100.00;101854.91;5003906;28;20200;-47
2023/08/11 04:01:02;;;;;;;7.22;1.90;;;;;;;12.58;100.00;101861.09;5011644;28;20265;-47
2023/08/11 04:03:30;;;;;;;5.03;1.98;;;;;;;12.60;100.00;101861.06;5003596;28;20807;-48
2023/08/11 04:05:57;;;;;;;5.57;1.90;;;;;;;12.62;100.00;101855.63;5021391;28;20172;-54
2023/08/11 04:08:23;;;;;;;6.00;1.90;;;;;;;12.65;100.00;101853.72;5027028;28;20222;-53
2023/08/11 04:10:48;;;;;;;4.68;1.50;;;;;;;12.70;100.00;101851.78;5028532;28;20165;-56
2023/08/11 04:13:14;;;;;;;4.90;1.50;;;;;;;12.74;100.00;101858.81;5028553;28;20290;-45
2023/08/11 04:15:39;;;;;;;7.50;1.92;;;;;;;12.77;100.00;101860.53;5004195;28;20275;-49
2023/08/11 04:18:05;;;;;;;6.57;1.90;;;;;;;12.82;100.00;101857.72;5021784;28;20506;-46
2023/08/11 04:20:30;;;;;;;5.03;1.50;;;;;;;12.90;100.00;101861.91;5004850;28;20611;-48
2023/08/11 04:22:56;;;;;;;7.25;1.65;;;;;;;12.92;100.00;101848.41;5019811;28;20191;-48
2023/08/11 04:25:21;;;;;;;3.30;1.42;;;;;;;12.96;100.00;101856.31;5027685;28;20176;-54
2023/08/11 04:27:47;;;;;;;2.55;1.38;;;;;;;12.98;100.00;101854.47;5015120;28;20200;-47
2023/08/11 04:30:13;;;;;;;4.13;1.40;;;;;;;13.05;100.00;101855.16;5004930;28;20176;-46
2023/08/11 04:32:41;;;;;;;4.32;1.83;;;;;;;13.03;100.00;101857.03;5002945;28;20606;-49
2023/08/11 04:35:08;;;;;;;5.85;1.67;;;;;;;13.04;100.00;101847.16;5016737;28;20195;-48
2023/08/11 04:37:34;;;;;;;4.45;1.40;;;;;;;13.07;100.00;101849.72;4998603;28;20854;-46
2023/08/11 04:40:05;;;;;;;4.38;1.65;;;;;;;13.09;100.00;101855.94;5006797;28;20550;-49
2023/08/11 04:42:32;;;;;;;6.13;1.73;;;;;;;13.07;100.00;101853.28;5014422;28;20673;-48
2023/08/11 04:44:58;;;;;;;6.13;1.65;;;;;;;13.04;100.00;101852.53;5006951;28;20263;-48
2023/08/11 04:47:24;;;;;;;3.35;1.58;;;;;;;13.07;100.00;101839.84;4994971;28;20291;-49
2023/08/11 04:49:49;;;;;;;7.32;1.60;;;;;;;13.09;100.00;101854.13;5002760;28;20204;-54
2023/08/11 04:52:15;;;;;;;5.47;1.50;;;;;;;13.11;100.00;101856.78;5002843;28;20415;-50
2023/08/11 04:54:40;;;;;;;7.72;1.83;;;;;;;13.16;100.00;101863.78;5021386;28;20595;-48
2023/08/11 04:57:06;;;;;;;6.07;1.67;;;;;;;13.21;100.00;101858.25;5011157;28;20616;-50
2023/08/11 04:59:31;;;;;;;4.72;1.42;;;;;;;13.29;100.00;101860.69;5024934;28;20631;-50
2023/08/11 05:01:57;;;;;;;7.43;2.00;;;;;;;13.27;100.00;101858.06;5025478;28;20202;-49
2023/08/11 05:04:22;;;;;;;4.53;1.90;;;;;;;13.30;100.00;101865.16;5023012;28;20299;-55
2023/08/11 05:06:47;;;;;;;6.05;1.83;;;;;;;13.34;100.00;101856.06;5023482;28;20164;-46
2023/08/11 05:09:13;;;;;;;7.40;2.08;;;;;;;13.35;100.00;101856.00;5028296;28;20196;-50
2023/08/11 05:11:38;;;;;;;4.95;2.08;;;;;;;13.41;100.00;101852.22;5020302;28;20615;-45
2023/08/11 05:14:05;;;;;;;6.32;2.08;;;;;;;13.41;100.00;101859.44;5018820;28;20631;-47
2023/08/11 05:16:31;;;;;;;6.28;2.38;;;;;;;13.43;100.00;101850.38;5017731;28;20253;-45
2023/08/11 05:18:56;;;;;;;5.68;2.00;;;;;;;13.43;100.00;101850.38;5011485;28;20195;-50
2023/08/11 05:21:22;;;;;;;5.82;2.10;;;;;;;13.44;100.00;101849.41;5014990;28;20211;-49
2023/08/11 05:23:47;;;;;;;7.63;2.30;;;;;;;13.42;100.00;101851.28;5018342;28;20232;-50
2023/08/11 05:26:13;;;;;;;7.20;2.05;;;;;;;13.46;100.00;101852.94;5018571;28;20173;-50
2023/08/11 05:28:38;;;;;;;5.68;2.13;;;;;;;13.50;100.00;101843.84;5019138;28;20199;-47
2023/08/11 05:31:04;;;;;;;14.23;2.28;;;;;;;13.54;100.00;101848.19;5017555;28;20195;-51
2023/08/11 05:33:30;;;;;;;9.68;2.50;;;;;;;13.58;100.00;101844.47;5015299;28;20257;-50
2023/08/11 05:35:56;;;;;;;6.15;2.00;;;;;;;13.62;100.00;101838.94;5019917;28;20642;-49
2023/08/11 05:38:25;;;;;;;10.80;2.50;;;;;;;13.62;100.00;101849.72;5019819;28;20258;-52
2023/08/11 05:40:51;;;;;;;5.38;2.08;;;;;;;13.69;100.00;101851.28;5020296;28;20219;-50
2023/08/11 05:43:17;;;;;;;9.40;2.60;;;;;;;13.68;100.00;101850.38;5017348;28;20330;-49
2023/08/11 05:45:42;;;;;;;11.38;2.72;;;;;;;13.76;100.00;101847.44;5016248;28;20631;-50
2023/08/11 05:48:08;;;;;;;4.20;1.92;;;;;;;13.78;100.00;101842.88;5017876;28;20204;-50
2023/08/11 05:50:33;;;;;;;5.82;1.90;;;;;;;13.85;100.00;101839.03;5022244;28;20238;-51
2023/08/11 05:52:59;;;;;;;12.57;2.63;;;;;;;13.86;100.00;101839.91;5027283;28;20268;-50
2023/08/11 05:55:24;;;;;;;8.50;2.40;;;;;;;13.94;100.00;101844.06;5018173;28;20183;-50
2023/08/11 05:57:50;;;;;;;9.68;2.08;;;;;;;13.96;100.00;101838.66;5025404;28;20199;-49
2023/08/11 06:00:18;;;;;;;7.43;1.90;;;;;;;13.99;100.00;101849.31;5026487;28;20215;-49
2023/08/11 06:02:44;;;;;;;10.52;1.80;;;;;;;13.99;100.00;101839.44;5018315;28;20242;-48
2023/08/11 06:05:12;;;;;;;7.80;2.22;;;;;;;14.04;100.00;101836.56;5020257;28;20556;-48
2023/08/11 06:07:38;;;;;;;5.65;1.70;;;;;;;14.06;100.00;101844.56;5021048;28;20196;-48
2023/08/11 06:10:04;;;;;;;4.90;1.67;;;;;;;14.10;100.00;101844.44;5022740;28;20187;-48
2023/08/11 06:12:30;;;;;;;4.18;1.40;;;;;;;14.12;100.00;101837.13;5022114;28;20254;-49
2023/08/11 06:14:56;;;;;;;6.90;1.67;;;;;;;14.15;100.00;101845.13;5024254;28;20234;-50
2023/08/11 06:17:21;;;;;;;6.07;1.77;;;;;;;14.19;100.00;101835.09;5019382;28;20701;-48
2023/08/11 06:19:47;;;;;;;4.72;1.40;;;;;;;14.22;100.00;101841.25;5022020;28;20204;-50
2023/08/11 06:22:13;;;;;;;7.40;1.80;;;;;;;14.24;100.00;101835.81;5024879;28;20310;-48
2023/08/11 06:24:38;;;;;;;5.72;1.75;;;;;;;14.29;99.65;101835.63;5022952;28;20299;-49
2023/08/11 06:27:04;;;;;;;5.13;1.75;;;;;;;14.33;99.40;101832.75;5019885;28;20184;-48
2023/08/11 06:29:29;;;;;;;3.90;1.52;;;;;;;14.44;99.17;101840.44;5024310;28;20258;-49
2023/08/11 06:31:55;;;;;;;5.93;1.73;;;;;;;14.43;98.86;101833.31;5023037;28;20247;-49
2023/08/11 06:34:21;;;;;;;6.13;1.52;;;;;;;14.48;98.86;101836.69;5023256;28;20185;-49
2023/08/11 06:36:47;;;;;;;7.65;1.85;;;;;;;14.50;98.65;101844.75;5010024;28;20179;-50
2023/08/11 06:39:13;;;;;;;7.05;1.58;;;;;;;14.65;98.92;101841.50;5020945;28;20211;-47
2023/08/11 06:41:39;;;;;;;5.70;1.48;;;;;;;14.58;98.47;101846.25;5009884;28;20258;-50
2023/08/11 06:44:05;;;;;;;3.10;1.30;;;;;;;14.65;98.54;101840.56;5000607;28;20262;-49
2023/08/11 06:46:31;;;;;;;4.18;1.50;;;;;;;14.66;98.56;101850.44;5024054;28;20622;-51
2023/08/11 06:48:56;;;;;;;5.60;1.80;;;;;;;14.70;98.66;101852.09;5021068;28;20238;-50
2023/08/11 06:51:22;;;;;;;3.55;1.42;;;;;;;14.76;98.79;101847.34;5021999;28;20636;-48
2023/08/11 06:53:48;;;;;;;7.05;1.98;;;;;;;14.76;98.86;101855.44;5020490;28;20194;-49
2023/08/11 06:56:13;;;;;;;4.85;1.60;;;;;;;14.80;99.05;101848.06;5002040;28;20192;-48
2023/08/11 06:58:39;;;;;;;7.65;1.80;;;;;;;14.89;99.11;101842.34;5021547;28;20191;-47
2023/08/11 07:01:04;;;;;;;5.82;1.88;;;;;;;14.92;98.92;101836.78;5020487;28;20677;-47
2023/08/11 07:03:30;;;;;;;4.20;1.58;;;;;;;15.03;98.77;101844.47;5020951;28;20217;-47
2023/08/11 07:05:56;;;;;;;6.95;2.72;;;;;;;15.08;98.82;101842.44;5025657;28;20176;-47
2023/08/11 07:08:21;;;;;;;7.90;1.80;;;;;;;15.13;98.78;101845.84;5011508;28;20215;-49
2023/08/11 07:10:47;;;;;;;5.85;1.88;;;;;;;15.19;98.61;101848.28;5018046;28;20251;-47
2023/08/11 07:13:12;;;;;;;7.72;1.85;;;;;;;15.28;98.49;101848.84;5023305;28;20174;-49
2023/08/11 07:15:42;;;;;;;3.63;1.80;;;;;;;15.35;98.40;101848.53;5017234;28;20267;-48
2023/08/11 07:18:07;;;;;;;7.72;1.90;;;;;;;15.44;98.22;101847.28;5016702;28;20201;-47
2023/08/11 07:20:33;;;;;;;4.50;1.92;;;;;;;15.48;98.03;101848.91;5024955;28;20195;-48
2023/08/11 07:22:58;;;;;;;6.15;1.83;;;;;;;15.54;97.84;101851.31;5002833;28;20285;-48
2023/08/11 07:25:24;;;;;;;6.18;2.25;;;;;;;15.65;97.94;101854.47;5020312;28;20173;-48
2023/08/11 07:27:49;;;;;;;6.97;1.98;;;;;;;15.70;97.96;101869.56;5025535;28;20195;-49
2023/08/11 07:30:15;;;;;;;5.13;1.58;;;;;;;15.76;97.48;101878.31;5022468;28;20187;-47
2023/08/11 07:32:41;;;;;;;6.45;2.33;;;;;;;15.72;97.61;101865.91;5016878;28;20635;-47
2023/08/11 07:35:07;;;;;;;4.18;1.90;;;;;;;15.73;97.51;101877.59;5016866;28;20169;-48
2023/08/11 07:37:33;;;;;;;4.32;2.03;;;;;;;15.78;97.69;101876.44;5024668;28;20555;-47
2023/08/11 07:39:58;;;;;;;7.20;1.95;;;;;;;15.73;97.69;101883.00;5017936;28;20226;-46
2023/08/11 07:42:23;;;;;;;6.72;2.47;;;;;;;15.77;97.69;101876.53;5015287;28;20181;-45
2023/08/11 07:44:49;;;;;;;10.15;2.70;;;;;;;15.80;98.00;101873.69;5019871;28;20211;-47
2023/08/11 07:47:14;;;;;;;3.47;1.80;;;;;;;15.85;98.47;101891.47;5017001;28;20188;-48
2023/08/11 07:49:40;;;;;;;6.57;2.33;;;;;;;15.90;99.04;101875.03;5017929;28;20180;-47
2023/08/11 07:52:05;;;;;;;7.38;2.22;;;;;;;16.03;99.37;101883.50;5016472;28;20730;-49
2023/08/11 07:54:31;;;;;;;7.90;2.67;;;;;;;16.02;99.16;101882.59;4998160;28;20177;-48
2023/08/11 07:56:56;;;;;;;7.32;2.70;;;;;;;16.06;99.05;101884.22;5017885;28;20180;-49
2023/08/11 07:59:22;;;;;;;4.50;2.53;;;;;;;16.21;98.96;101887.19;5015949;28;20272;-48
2023/08/11 08:01:48;;;;;;;7.43;2.85;;;;;;;16.18;98.62;101881.91;5020464;28;20653;-48
2023/08/11 08:04:13;;;;;;;4.88;2.40;;;;;;;16.20;98.51;101872.81;5021273;28;20732;-48
2023/08/11 08:06:45;;;;;;;7.00;2.55;;;;;;;16.26;98.88;101879.75;5017258;28;20215;-46
2023/08/11 08:09:12;;;;;;;9.48;3.13;;;;;;;16.32;98.92;101886.72;5016152;28;20188;-47
2023/08/11 08:11:38;;;;;;;9.75;2.78;;;;;;;16.29;98.35;101879.63;5022149;28;20191;-47
2023/08/11 08:14:04;;;;;;;4.78;2.58;;;;;;;16.39;97.92;101864.72;5018340;28;20184;-48
2023/08/11 08:16:29;;;;;;;8.10;3.20;;;;;;;16.45;97.52;101868.97;5020515;28;20187;-48
2023/08/11 08:18:55;;;;;;;8.63;3.40;;;;;;;16.46;97.18;101862.59;5018657;28;20197;-46
2023/08/11 08:21:20;;;;;;;8.02;2.88;;;;;;;16.56;96.82;101868.47;5022748;28;20184;-49
2023/08/11 08:23:47;;;;;;;12.35;3.80;;;;;;;16.50;96.47;101868.75;5017401;28;20246;-47
2023/08/11 08:26:12;;;;;;;6.28;3.08;;;;;;;16.54;96.26;101867.66;5019049;28;20651;-47
2023/08/11 08:28:38;;;;;;;6.22;2.80;;;;;;;16.66;95.94;101867.06;5019271;28;20192;-49
2023/08/11 08:31:06;;;;;;;6.80;3.55;;;;;;;16.80;95.64;101863.75;5019853;28;20196;-48
2023/08/11 08:33:31;;;;;;;8.00;3.40;;;;;;;16.76;95.27;101859.41;5014729;28;20189;-47
2023/08/11 08:35:57;;;;;;;7.38;3.55;;;;;;;16.77;94.46;101851.22;5017456;28;20179;-47
2023/08/11 08:38:22;;;;;;;5.90;3.63;;;;;;;16.82;94.57;101861.88;5017645;28;20199;-46
2023/08/11 08:40:48;;;;;;;6.82;4.07;;;;;;;16.88;93.56;101850.75;5020636;28;20192;-48
2023/08/11 08:43:14;;;;;;;7.70;4.03;;;;;;;16.94;93.24;101844.13;5016929;28;20243;-49
2023/08/11 08:45:43;;;;;;;5.55;3.55;;;;;;;16.97;92.95;101847.59;5018024;28;20207;-48
2023/08/11 08:48:16;;;;;;;6.80;3.30;;;;;;;17.08;93.33;101853.34;5015183;28;20212;-47
2023/08/11 08:50:41;;;;;;;7.00;3.90;;;;;;;16.97;92.63;101842.16;5013343;28;20631;-47
2023/08/11 08:53:08;;;;;;;8.50;3.38;;;;;;;16.99;92.59;101851.09;5015385;28;20179;-48
2023/08/11 08:55:33;;;;;;;6.03;3.35;;;;;;;17.12;92.64;101861.31;5018485;28;20622;-47
2023/08/11 08:58:00;;;;;;;5.00;3.33;;;;;;;17.00;92.06;101849.25;5013923;28;20212;-50
2023/08/11 09:00:26;;;;;;;5.63;3.05;;;;;;;17.23;91.68;101858.94;5016600;28;20187;-46
2023/08/11 09:02:53;;;;;;;6.45;3.38;;;;;;;17.27;91.75;101850.63;5019451;28;20205;-47
2023/08/11 09:05:21;;;;;;;6.10;3.65;;;;;;;17.22;90.89;101846.38;5021125;28;20192;-47
2023/08/11 09:07:46;;;;;;;7.20;3.25;;;;;;;17.40;90.76;101844.56;4999153;28;20195;-46
2023/08/11 09:10:12;;;;;;;7.43;3.75;;;;;;;17.48;90.53;101845.06;5018440;28;20176;-48
2023/08/11 09:12:37;;;;;;;8.25;3.63;;;;;;;17.48;89.75;101847.75;5020144;28;20188;-48
2023/08/11 09:15:08;;;;;;;8.40;3.42;;;;;;;17.57;89.89;101852.72;5013857;28;20545;-47
2023/08/11 09:17:38;;;;;;;7.63;3.70;;;;;;;17.49;89.38;101847.69;5015291;28;20575;-47
2023/08/11 09:20:06;;;;;;;6.22;2.90;;;;;;;17.68;89.35;101844.91;5020108;28;20256;-48
2023/08/11 09:22:32;;;;;;;4.43;3.17;;;;;;;17.73;89.28;101838.34;5020810;28;20278;-47
2023/08/11 09:24:58;;;;;;;6.13;3.78;;;;;;;17.70;88.32;101837.56;5017029;28;20638;-47
2023/08/11 09:27:23;;;;;;;7.22;3.67;;;;;;;17.75;88.03;101844.56;5016860;28;20204;-46
2023/08/11 09:29:50;;;;;;;5.85;3.50;;;;;;;17.83;87.90;101850.53;5019227;28;20176;-47
2023/08/11 09:32:15;;;;;;;7.15;3.60;;;;;;;17.77;87.35;101846.25;5002073;28;20283;-47
2023/08/11 09:34:43;;;;;;;7.32;3.00;;;;;;;17.80;87.26;101847.91;5020287;28;20525;-45
2023/08/11 09:37:09;;;;;;;7.03;3.38;;;;;;;17.71;86.73;101842.03;5019074;28;20241;-45
2023/08/11 09:39:36;;;;;;;5.97;3.45;;;;;;;17.74;86.65;101851.84;5014908;28;20184;-49
2023/08/11 09:42:03;;;;;;;6.65;3.38;;;;;;;17.79;86.41;101854.31;5021579;28;20208;-47
2023/08/11 09:44:29;;;;;;;6.40;3.40;;;;;;;17.89;86.36;101852.91;5018882;28;20207;-46
2023/08/11 09:46:55;;;;;;;7.10;3.35;;;;;;;17.96;87.07;101859.75;5019323;28;20188;-47
2023/08/11 09:49:21;;;;;;;5.70;3.90;;;;;;;17.89;86.40;101861.91;5018535;28;20177;-47
2023/08/11 09:51:49;;;;;;;8.68;3.95;;;;;;;17.85;86.08;101864.88;5020333;28;20187;-46
2023/08/11 09:54:15;;;;;;;6.82;3.80;;;;;;;17.85;86.15;101859.44;5005401;28;20180;-45
2023/08/11 09:56:43;;;;;;;7.53;3.72;;;;;;;17.87;86.12;101871.09;5017839;28;20634;-47
2023/08/11 09:59:18;;;;;;;5.65;3.25;;;;;;;18.02;86.48;101869.41;5006541;28;20511;-48
2023/08/11 10:01:48;;;;;;;5.20;3.25;;;;;;;18.04;86.05;101871.09;5006351;28;20254;-49
2023/08/11 10:04:28;;;;;;;7.45;3.47;;;;;;;18.01;85.97;101868.50;5020419;28;20256;-47
2023/08/11 10:06:58;;;;;;;8.63;3.40;;;;;;;18.07;86.36;101870.03;5018556;28;20274;-47
2023/08/11 10:09:25;;;;;;;5.82;3.47;;;;;;;18.00;86.38;101876.75;5015870;28;20180;-46
2023/08/11 10:11:52;;;;;;;12.95;3.25;;;;;;;18.06;86.68;101876.41;5017185;28;20643;-46
2023/08/11 10:14:21;;;;;;;6.78;3.05;;;;;;;18.17;86.77;101873.13;5019154;28;20172;-46
2023/08/11 10:16:47;;;;;;;5.43;3.38;;;;;;;18.11;86.30;101886.06;5019410;28;20266;-48
2023/08/11 10:19:13;;;;;;;7.60;3.33;;;;;;;18.09;85.62;101860.00;5020419;28;20196;-49
2023/08/11 10:21:40;;;;;;;6.57;3.30;;;;;;;18.19;85.65;101874.81;5018447;28;20207;-50
2023/08/11 10:24:06;;;;;;;4.30;3.33;;;;;;;18.18;85.10;101861.34;5020094;28;20227;-46
2023/08/11 10:26:33;;;;;;;6.65;2.80;;;;;;;18.37;84.43;101861.22;5019294;28;20214;-48
2023/08/11 10:29:00;;;;;;;6.47;3.05;;;;;;;18.34;84.15;101854.09;5019851;28;20201;-47
2023/08/11 10:31:25;;;;;;;7.47;2.97;;;;;;;18.31;83.99;101854.28;5014031;28;20187;-48
2023/08/11 10:33:53;;;;;;;6.60;3.47;;;;;;;18.36;83.59;101848.59;5016874;28;20172;-47
2023/08/11 10:36:23;;;;;;;5.20;2.67;;;;;;;18.51;83.15;101848.63;5023895;28;20201;-47
2023/08/11 10:39:06;;;;;;;3.70;2.70;;;;;;;18.66;82.94;101855.03;5022409;28;20318;-47
2023/08/11 10:41:33;;;;;;;5.82;2.75;;;;;;;18.64;82.85;101853.38;5019948;28;20179;-46
2023/08/11 10:43:58;;;;;;;5.25;3.10;;;;;;;18.71;82.18;101849.34;5024302;28;20304;-47
2023/08/11 10:46:26;;;;;;;4.70;2.70;;;;;;;18.83;81.83;101846.00;5025144;28;20944;-47
2023/08/11 10:48:59;;;;;;;4.65;3.15;;;;;;;18.90;80.80;101839.25;5021586;28;20207;-48
2023/08/11 10:51:28;;;;;;;3.53;2.60;;;;;;;19.00;80.23;101839.59;5021632;28;20271;-47
2023/08/11 10:53:55;;;;;;;5.28;3.10;;;;;;;18.93;79.71;101832.75;5022267;28;20553;-48
2023/08/11 10:56:32;;;;;;;5.03;2.92;;;;;;;19.01;80.23;101835.91;5019258;28;20242;-46
2023/08/11 10:59:29;;;;;;;6.68;3.28;;;;;;;19.18;79.56;101837.66;5017574;28;20616;-47
2023/08/11 11:01:55;;;;;;;5.60;3.08;;;;;;;19.26;78.56;101827.22;5021938;28;20607;-46
2023/08/11 11:04:29;;;;;;;7.13;3.03;;;;;;;19.10;77.99;101824.50;4998891;28;20192;-46
2023/08/11 11:06:54;;;;;;;4.40;2.75;;;;;;;19.19;77.30;101820.38;5008021;28;20183;-46
2023/08/11 11:09:20;;;;;;;4.72;2.83;;;;;;;19.43;77.17;101828.03;5026006;28;20171;-49
2023/08/11 11:11:46;;;;;;;3.15;2.67;;;;;;;19.51;76.24;101826.63;5020298;28;20231;-46
2023/08/11 11:14:13;;;;;;;5.63;3.03;;;;;;;19.62;75.13;101825.09;5022530;28;20173;-48
2023/08/11 11:16:39;;;;;;;4.82;2.90;;;;;;;19.62;75.08;101822.38;5023388;28;20204;-47